Vichy/Rolla, Missouri
Current Conditions -  °F | °C
As of 9:53 PM on Saturday 20 Dec 2014 (Local Time) from KVIH Reporting Station
Overcast Overcast  
Wind Chill: 33°   Ceiling: 1700
Heat Index: 39°   Visibility: 10mi
Dew Point: 34°   Wind: 9mph
Humidity: 82%   Direction: 200°SSW
Pressure: 30.19"   Gusts: NA
Location:  38.12°N, 91.76°W
Report Text: KVIH 210353Z AUTO 20008KT 10SM OVC017 04/01 A3019 RMK AO2 SLP230 T00390011
Loading
Personal Weather Stations






























Interactive Weather Map New forecast layout! Learn more

10-Day Weather Forecast

Advertisements
Track Severe Weather on mobile